Portada
METAR-TAF:

METAR-TAF

Aeroports :

Txità, Rússia

latitud: 52-05N, longitud: 113-29E, altitud: 685 m

Observació

L'informe es va fer fa 43 minuts, a les 14:30 UTC
Vent 16 kt del Oest/Nord-Oest
Temperatura -7°C
Humitat 48%
Pressió 1021 hPa
Visibilitat 10 km o més

METAR: UIAA 231430Z AUTO 29008MPS 9999 NCD M07/M16 Q1021 RMK QFE707/0942

Hora: 00:13 (15:13 UTC)

Pronòstic

L'informe es va fer fa 1 hora i 13 minuts, a les 14:00 UTC
Pronòstic vàlid del 23 a les 15 UTC al 24 a les 15 UTC
Vent 12 kt del Oest/Nord-Oest amb ràfegues de 23 kt
Visibilitat 10 km o més
Núvols disperses a una alçada de 4000 ft, Cumulonimbus.
Temporalment
l' 23 a les 15 UTC al 24 a les 03 UTC
Vent 6 kt del Sud-Oest amb ràfegues de 16 kt

TAF: UIAA 231400Z 2315/2415 29006G12MPS 9999 SCT040CB TEMPO 2315/2403 22003G08MPS

Observacions i pronòstics meteorològics de més de 4000 aeroports (METAR i TAF).

Les estacions disponibles són els punts grocs i vermells al mapa.

Posi el ratolí al punt desitjat per veure el nom de l'estació.

Feu clic per veure les observacions i els pronòstics meteorològics.

Per canviar el mapa: feu clic els botons verds amb una creu de color negre per apropar; al botó verd amb un guió per allunyar la imatge; o en les fletxes verdes per a mapes adjacents.


METAR-TAF: